createdAt,value
2023-01-28T00:01:17.525Z,2.76
2023-01-28T00:03:44.754Z,2.73
2023-01-28T00:06:15.361Z,2.75
2023-01-28T00:08:42.720Z,2.75
2023-01-28T00:11:13.369Z,2.74
2023-01-28T00:13:40.889Z,2.79
2023-01-28T00:16:09.704Z,2.77
2023-01-28T00:18:37.651Z,2.75
2023-01-28T00:21:12.751Z,2.74
2023-01-28T00:23:43.955Z,2.72
2023-01-28T00:26:14.743Z,2.73
2023-01-28T00:28:44.496Z,2.77
2023-01-28T00:31:26.277Z,2.74
2023-01-28T00:33:56.116Z,2.76
2023-01-28T00:36:25.767Z,2.73
2023-01-28T00:38:56.783Z,2.72
2023-01-28T00:41:28.113Z,2.68
2023-01-28T00:43:55.221Z,2.67
2023-01-28T00:46:23.935Z,2.72
2023-01-28T00:48:50.955Z,2.68
2023-01-28T00:51:20.693Z,2.68
2023-01-28T00:53:49.786Z,2.66
2023-01-28T00:56:19.353Z,2.66
2023-01-28T00:58:47.129Z,2.67
2023-01-28T01:01:20.148Z,2.70
2023-01-28T01:03:48.065Z,2.68
2023-01-28T01:06:16.545Z,2.64
2023-01-28T01:08:50.406Z,2.55
2023-01-28T01:11:19.184Z,2.52
2023-01-28T01:13:55.213Z,2.47
2023-01-28T01:16:28.911Z,2.46
2023-01-28T01:18:56.756Z,2.45
2023-01-28T01:21:28.405Z,2.47
2023-01-28T01:23:56.056Z,2.48
2023-01-28T01:26:24.334Z,2.50
2023-01-28T01:28:52.560Z,2.51
2023-01-28T01:31:22.298Z,2.51
2023-01-28T01:33:51.300Z,2.49
2023-01-28T01:36:20.273Z,2.45
2023-01-28T01:38:48.028Z,2.45
2023-01-28T01:41:31.146Z,2.45
2023-01-28T01:44:04.647Z,2.48
2023-01-28T01:46:58.093Z,2.46
2023-01-28T01:49:28.676Z,2.47
2023-01-28T01:52:14.648Z,2.46
2023-01-28T01:54:47.026Z,2.46
2023-01-28T01:57:23.640Z,2.44
2023-01-28T01:59:50.896Z,2.44
2023-01-28T02:02:18.198Z,2.41
2023-01-28T02:04:45.519Z,2.42
2023-01-28T02:07:19.606Z,2.43
2023-01-28T02:09:46.642Z,2.40
2023-01-28T02:12:22.339Z,2.40
2023-01-28T02:15:02.423Z,2.40
2023-01-28T02:17:30.675Z,2.40
2023-01-28T02:20:02.331Z,2.41
2023-01-28T02:23:06.670Z,2.39
2023-01-28T02:26:08.204Z,2.36
2023-01-28T02:28:50.156Z,2.35
2023-01-28T02:31:51.436Z,2.36
2023-01-28T02:34:32.777Z,2.38
2023-01-28T02:37:22.128Z,2.37
2023-01-28T02:39:55.456Z,2.34
2023-01-28T02:42:31.040Z,2.35
2023-01-28T02:44:58.323Z,2.35
2023-01-28T02:47:45.155Z,2.30
2023-01-28T02:50:17.451Z,2.31
2023-01-28T02:53:20.689Z,2.28
2023-01-28T02:55:59.686Z,2.31
2023-01-28T02:58:44.762Z,2.32
2023-01-28T03:01:37.705Z,2.33
2023-01-28T03:04:13.582Z,2.27
2023-01-28T03:06:49.994Z,2.25
2023-01-28T03:09:24.156Z,2.21
2023-01-28T03:12:21.501Z,2.25
2023-01-28T03:15:16.829Z,2.23
2023-01-28T03:18:10.663Z,2.23
2023-01-28T03:21:12.995Z,2.20
2023-01-28T03:24:09.336Z,2.15
2023-01-28T03:27:08.764Z,2.17
2023-01-28T03:29:58.127Z,2.11
2023-01-28T03:32:44.836Z,2.12
2023-01-28T03:35:38.084Z,2.10
2023-01-28T03:38:18.211Z,2.07
2023-01-28T03:41:02.584Z,2.04
2023-01-28T03:43:32.093Z,2.03
2023-01-28T03:45:59.913Z,2.01
2023-01-28T03:48:29.196Z,1.99
2023-01-28T03:51:00.372Z,1.99
2023-01-28T03:53:29.341Z,1.97
2023-01-28T03:55:57.655Z,1.96
2023-01-28T03:59:01.498Z,1.97
2023-01-28T04:01:29.025Z,1.94
2023-01-28T04:03:56.797Z,1.94
2023-01-28T04:06:28.992Z,1.90
2023-01-28T04:09:05.968Z,1.89
2023-01-28T04:11:48.505Z,1.84
2023-01-28T04:14:21.833Z,1.84
2023-01-28T04:16:55.926Z,1.84
2023-01-28T04:19:26.062Z,1.85
2023-01-28T04:21:55.262Z,1.85
2023-01-28T04:24:24.196Z,1.82
2023-01-28T04:26:51.193Z,1.86
2023-01-28T04:29:18.950Z,1.88
2023-01-28T04:31:46.323Z,1.90
2023-01-28T04:34:21.800Z,1.88
2023-01-28T04:37:04.386Z,1.85
2023-01-28T04:39:44.241Z,1.84
2023-01-28T04:42:20.989Z,1.82
2023-01-28T04:45:24.691Z,1.76
2023-01-28T04:47:59.501Z,1.77
2023-01-28T04:50:38.460Z,1.74
2023-01-28T04:53:13.268Z,1.82
2023-01-28T04:55:52.277Z,1.83
2023-01-28T04:58:20.228Z,1.80
2023-01-28T05:01:00.245Z,1.78
2023-01-28T05:03:27.799Z,1.79
2023-01-28T05:05:55.473Z,1.80
2023-01-28T05:08:33.068Z,1.79
2023-01-28T05:11:00.003Z,1.82
2023-01-28T05:13:27.182Z,1.82
2023-01-28T05:15:54.207Z,1.75
2023-01-28T05:18:21.807Z,1.71
2023-01-28T05:21:01.717Z,1.76
2023-01-28T05:23:29.856Z,1.79
2023-01-28T05:25:59.497Z,1.74
2023-01-28T05:28:26.767Z,1.67
2023-01-28T05:30:53.828Z,1.67
2023-01-28T05:33:21.121Z,1.65
2023-01-28T05:35:49.591Z,1.67
2023-01-28T05:38:20.478Z,1.71
2023-01-28T05:40:48.566Z,1.65
2023-01-28T05:43:16.639Z,1.59
2023-01-28T05:45:47.802Z,1.63
2023-01-28T05:48:23.031Z,1.58
2023-01-28T05:51:06.059Z,1.59
2023-01-28T05:53:38.409Z,1.53
2023-01-28T05:56:07.170Z,1.52
2023-01-28T05:58:35.416Z,1.51
2023-01-28T06:01:03.607Z,1.54
2023-01-28T06:03:39.430Z,1.53
2023-01-28T06:06:06.716Z,1.49
2023-01-28T06:08:33.776Z,1.46
2023-01-28T06:11:01.176Z,1.44
2023-01-28T06:13:36.080Z,1.46
2023-01-28T06:16:24.312Z,1.47
2023-01-28T06:19:13.081Z,1.37
2023-01-28T06:21:43.516Z,1.33
2023-01-28T06:24:12.362Z,1.34
2023-01-28T06:26:39.327Z,1.30
2023-01-28T06:29:06.986Z,1.26
2023-01-28T06:31:34.043Z,1.22
2023-01-28T06:34:01.169Z,1.26
2023-01-28T06:36:28.135Z,1.20
2023-01-28T06:38:57.581Z,1.24
2023-01-28T06:41:24.641Z,1.24
2023-01-28T06:43:51.641Z,1.17
2023-01-28T06:46:19.826Z,1.15
2023-01-28T06:48:46.855Z,1.17
2023-01-28T06:51:13.834Z,1.18
2023-01-28T06:53:42.719Z,1.18
2023-01-28T06:56:14.163Z,1.20
2023-01-28T06:58:41.375Z,1.15
2023-01-28T07:01:08.520Z,1.14
2023-01-28T07:03:39.530Z,1.13
2023-01-28T07:06:07.099Z,1.15
2023-01-28T07:08:37.943Z,1.17
2023-01-28T07:11:05.521Z,1.20
2023-01-28T07:13:33.044Z,1.20
2023-01-28T07:16:00.635Z,1.20
2023-01-28T07:18:30.608Z,1.19
2023-01-28T07:20:57.554Z,1.21
2023-01-28T07:23:24.827Z,1.19
2023-01-28T07:25:52.015Z,1.24
2023-01-28T07:28:21.493Z,1.21
2023-01-28T07:30:53.712Z,1.46
2023-01-28T07:33:21.127Z,1.67
2023-01-28T07:35:48.860Z,1.69
2023-01-28T07:38:16.260Z,1.62
2023-01-28T07:40:43.257Z,1.51
2023-01-28T07:43:11.926Z,1.54
2023-01-28T07:45:42.730Z,1.73
2023-01-28T07:48:14.264Z,1.83
2023-01-28T07:50:42.271Z,1.84
2023-01-28T07:53:12.327Z,1.75
2023-01-28T07:55:40.616Z,1.72
2023-01-28T07:58:11.091Z,1.67
2023-01-28T08:00:39.611Z,1.63
2023-01-28T08:03:16.848Z,1.67
2023-01-28T08:05:51.604Z,1.73
2023-01-28T08:08:19.806Z,1.67
2023-01-28T08:10:50.420Z,1.63
2023-01-28T08:13:19.269Z,1.63
2023-01-28T08:15:47.090Z,1.53
2023-01-28T08:18:17.503Z,1.46
2023-01-28T08:20:46.388Z,1.38
2023-01-28T08:23:18.150Z,1.42
2023-01-28T08:25:47.532Z,1.36
2023-01-28T08:28:17.192Z,1.36
2023-01-28T08:30:45.295Z,1.38
2023-01-28T08:33:16.750Z,1.35
2023-01-28T08:35:44.964Z,1.35
2023-01-28T08:38:23.019Z,1.37
2023-01-28T08:40:55.896Z,1.36
2023-01-28T08:43:24.131Z,1.38
2023-01-28T08:45:52.018Z,1.35
2023-01-28T08:48:20.121Z,1.37
2023-01-28T08:50:48.173Z,1.35
2023-01-28T08:53:19.801Z,1.37
2023-01-28T08:55:48.401Z,1.37
2023-01-28T08:58:18.834Z,1.42
2023-01-28T09:00:47.056Z,1.42
2023-01-28T09:03:15.104Z,1.39
2023-01-28T09:05:43.257Z,1.36
2023-01-28T09:08:16.015Z,1.44
2023-01-28T09:10:44.573Z,1.51
2023-01-28T09:13:15.996Z,1.55
2023-01-28T09:15:44.252Z,1.63
2023-01-28T09:18:11.835Z,1.64
2023-01-28T09:20:39.782Z,1.69
2023-01-28T09:23:09.372Z,1.77
2023-01-28T09:25:37.464Z,1.80
2023-01-28T09:28:06.325Z,1.86
2023-01-28T09:30:37.043Z,1.82
2023-01-28T09:33:06.462Z,1.80
2023-01-28T09:35:35.473Z,1.77
2023-01-28T09:38:03.539Z,1.76
2023-01-28T09:40:46.696Z,1.76
2023-01-28T09:43:46.849Z,1.75
2023-01-28T09:46:18.718Z,1.74
2023-01-28T09:48:53.465Z,1.72
2023-01-28T09:51:26.452Z,1.71
2023-01-28T09:53:59.968Z,1.79
2023-01-28T09:56:34.426Z,1.79
2023-01-28T09:59:19.822Z,1.80
2023-01-28T10:02:21.721Z,1.80
2023-01-28T10:05:14.274Z,1.74
2023-01-28T10:08:41.855Z,1.68
2023-01-28T10:11:27.618Z,1.72
2023-01-28T10:14:24.148Z,1.77
2023-01-28T10:17:13.403Z,1.75
2023-01-28T10:20:09.578Z,1.75
2023-01-28T10:23:12.608Z,1.72
2023-01-28T10:25:48.302Z,1.69
2023-01-28T10:28:29.343Z,1.73
2023-01-28T10:30:56.644Z,1.68
2023-01-28T10:33:37.742Z,1.69
2023-01-28T10:36:06.147Z,1.74
2023-01-28T10:38:33.601Z,1.76
2023-01-28T10:41:04.367Z,1.77
2023-01-28T10:43:37.659Z,1.76
2023-01-28T10:46:23.688Z,1.82
2023-01-28T10:49:04.067Z,1.81
2023-01-28T10:51:35.850Z,1.81
2023-01-28T10:54:04.468Z,1.86
2023-01-28T10:56:35.955Z,1.92
2023-01-28T10:59:28.662Z,1.90
2023-01-28T11:02:04.302Z,1.99
2023-01-28T11:04:36.430Z,1.88
2023-01-28T11:07:19.536Z,1.84
2023-01-28T11:09:51.355Z,1.85
2023-01-28T11:12:28.763Z,1.86
2023-01-28T11:15:04.875Z,1.93
2023-01-28T11:17:38.532Z,2.04
2023-01-28T11:20:19.316Z,2.06
2023-01-28T11:22:48.795Z,2.10
2023-01-28T11:25:32.343Z,2.12
2023-01-28T11:28:05.712Z,2.20
2023-01-28T11:30:37.430Z,2.22
2023-01-28T11:33:31.420Z,2.26
2023-01-28T11:36:12.549Z,2.33
2023-01-28T11:39:22.815Z,2.46
2023-01-28T11:41:49.828Z,2.59
2023-01-28T11:44:21.228Z,2.69
2023-01-28T11:47:02.445Z,2.76
2023-01-28T11:49:50.947Z,2.70
2023-01-28T11:53:08.976Z,2.70
2023-01-28T11:56:09.573Z,2.80
2023-01-28T11:58:56.754Z,2.88
2023-01-28T12:01:47.598Z,2.94
2023-01-28T12:04:43.133Z,3.02
2023-01-28T12:07:35.185Z,3.03
2023-01-28T12:10:41.022Z,3.00
2023-01-28T12:13:47.724Z,2.97
2023-01-28T12:16:45.146Z,3.12
2023-01-28T12:19:19.669Z,3.15
2023-01-28T12:21:55.708Z,3.14
2023-01-28T12:25:13.329Z,3.33
2023-01-28T12:27:59.050Z,3.50
2023-01-28T12:30:59.999Z,3.38
2023-01-28T12:33:45.784Z,3.17
2023-01-28T12:36:44.189Z,3.21
2023-01-28T12:39:53.466Z,3.40
2023-01-28T12:42:35.585Z,3.42
2023-01-28T12:45:17.917Z,3.52
2023-01-28T12:47:55.829Z,3.60
2023-01-28T12:50:36.387Z,3.69
2023-01-28T12:53:17.010Z,3.77
2023-01-28T12:56:02.831Z,3.82
2023-01-28T12:58:49.682Z,3.68
2023-01-28T13:01:29.309Z,3.49
2023-01-28T13:04:12.521Z,3.34
2023-01-28T13:06:54.635Z,3.29
2023-01-28T13:09:26.769Z,3.33
2023-01-28T13:11:59.314Z,3.39
2023-01-28T13:14:32.339Z,3.48
2023-01-28T13:17:24.904Z,3.63
2023-01-28T13:19:53.228Z,3.75
2023-01-28T13:22:36.996Z,3.85
2023-01-28T13:25:27.103Z,3.99
2023-01-28T13:28:03.856Z,4.13
2023-01-28T13:30:49.307Z,4.11
2023-01-28T13:33:32.355Z,4.05
2023-01-28T13:36:08.604Z,3.99
2023-01-28T13:38:36.828Z,3.76
2023-01-28T13:41:06.508Z,3.59
2023-01-28T13:43:43.579Z,3.55
2023-01-28T13:46:26.863Z,3.46
2023-01-28T13:48:58.745Z,3.28
2023-01-28T13:51:34.491Z,3.18
2023-01-28T13:54:15.725Z,3.21
2023-01-28T13:57:40.096Z,3.29
2023-01-28T14:00:41.373Z,3.32
2023-01-28T14:03:54.106Z,3.32
2023-01-28T14:07:04.112Z,3.37
2023-01-28T14:09:55.739Z,3.40
2023-01-28T14:12:42.531Z,3.44
2023-01-28T14:15:23.160Z,3.47
2023-01-28T14:17:54.853Z,3.50
2023-01-28T14:20:31.418Z,3.55
2023-01-28T14:23:03.925Z,3.62
2023-01-28T14:25:42.906Z,3.65
2023-01-28T14:28:18.207Z,3.64
2023-01-28T14:31:06.481Z,3.65
2023-01-28T14:33:33.652Z,3.63
2023-01-28T14:36:00.725Z,3.65
2023-01-28T14:38:28.472Z,3.65
2023-01-28T14:40:56.028Z,3.66
2023-01-28T14:43:27.513Z,3.65
2023-01-28T14:46:16.833Z,3.66
2023-01-28T14:49:32.589Z,3.64
2023-01-28T14:52:21.725Z,3.60
2023-01-28T14:55:30.424Z,3.55
2023-01-28T14:58:04.479Z,3.51
2023-01-28T15:00:35.162Z,3.47
2023-01-28T15:03:24.986Z,3.45
2023-01-28T15:06:30.387Z,3.37
2023-01-28T15:09:09.788Z,3.31
2023-01-28T15:11:41.379Z,3.28
2023-01-28T15:14:25.815Z,3.20
2023-01-28T15:16:53.916Z,3.13
2023-01-28T15:19:29.813Z,3.09
2023-01-28T15:22:01.076Z,3.00
2023-01-28T15:24:28.674Z,2.93
2023-01-28T15:26:56.282Z,2.84
2023-01-28T15:29:31.188Z,2.77
2023-01-28T15:31:59.628Z,2.68
2023-01-28T15:34:30.362Z,2.59
2023-01-28T15:37:00.186Z,2.47
2023-01-28T15:39:29.977Z,2.39
2023-01-28T15:42:04.711Z,2.30
2023-01-28T15:44:45.539Z,2.22
2023-01-28T15:47:35.199Z,2.11
2023-01-28T15:50:07.265Z,2.02
2023-01-28T15:52:40.860Z,1.93
2023-01-28T15:55:38.463Z,1.82
2023-01-28T15:58:30.815Z,1.70
2023-01-28T16:01:24.056Z,1.60
2023-01-28T16:04:21.460Z,1.49
2023-01-28T16:06:48.865Z,1.36
2023-01-28T16:09:31.759Z,1.27
2023-01-28T16:12:12.363Z,1.15
2023-01-28T16:14:51.739Z,1.07
2023-01-28T16:17:24.340Z,1.01
2023-01-28T16:20:04.596Z,0.98
2023-01-28T16:22:37.807Z,0.95
2023-01-28T16:25:31.944Z,0.88
2023-01-28T16:28:01.492Z,0.79
2023-01-28T16:30:29.740Z,0.68
2023-01-28T16:32:58.213Z,0.58
2023-01-28T16:35:38.279Z,0.45
2023-01-28T16:38:19.391Z,0.32
2023-01-28T16:40:47.888Z,0.22
2023-01-28T16:43:17.492Z,0.16
2023-01-28T16:45:46.148Z,0.09
2023-01-28T16:48:13.686Z,0.03
2023-01-28T16:50:43.201Z,-0.03
2023-01-28T16:53:21.608Z,-0.11
2023-01-28T16:55:52.590Z,-0.19
2023-01-28T16:58:26.289Z,-0.27
2023-01-28T17:00:54.559Z,-0.37
2023-01-28T17:03:23.108Z,-0.44
2023-01-28T17:05:50.296Z,-0.49
2023-01-28T17:08:17.357Z,-0.57
2023-01-28T17:10:44.771Z,-0.64
2023-01-28T17:13:11.861Z,-0.73
2023-01-28T17:15:38.820Z,-0.80
2023-01-28T17:18:05.947Z,-0.85
2023-01-28T17:20:37.299Z,-0.92
2023-01-28T17:23:07.001Z,-0.97
2023-01-28T17:25:41.938Z,-1.04
2023-01-28T17:28:10.356Z,-1.11
2023-01-28T17:30:41.912Z,-1.14
2023-01-28T17:33:09.620Z,-1.19
2023-01-28T17:35:37.101Z,-1.22
2023-01-28T17:38:05.665Z,-1.25
2023-01-28T17:40:32.845Z,-1.26
2023-01-28T17:42:59.820Z,-1.27
2023-01-28T17:45:31.371Z,-1.27
2023-01-28T17:47:58.626Z,-1.25
2023-01-28T17:50:25.880Z,-1.22
2023-01-28T17:52:57.705Z,-1.20
2023-01-28T17:55:25.708Z,-1.18
2023-01-28T17:57:52.815Z,-1.17
2023-01-28T18:00:20.732Z,-1.15
2023-01-28T18:02:50.484Z,-1.11
2023-01-28T18:05:18.108Z,-1.04
2023-01-28T18:07:46.129Z,-0.96
2023-01-28T18:10:15.296Z,-0.88
2023-01-28T18:12:42.574Z,-0.83
2023-01-28T18:15:11.296Z,-0.75
2023-01-28T18:17:38.510Z,-0.72
2023-01-28T18:20:06.466Z,-0.68
2023-01-28T18:22:33.714Z,-0.64
2023-01-28T18:25:00.681Z,-0.64
2023-01-28T18:27:27.637Z,-0.63
2023-01-28T18:29:54.616Z,-0.64
2023-01-28T18:32:21.579Z,-0.64
2023-01-28T18:34:48.479Z,-0.65
2023-01-28T18:37:15.434Z,-0.68
2023-01-28T18:39:44.291Z,-0.72
2023-01-28T18:42:11.844Z,-0.75
2023-01-28T18:44:38.805Z,-0.82
2023-01-28T18:47:05.992Z,-0.89
2023-01-28T18:49:33.011Z,-0.98
2023-01-28T18:51:59.953Z,-1.04
2023-01-28T18:54:27.244Z,-1.11
2023-01-28T18:56:54.309Z,-1.14
2023-01-28T18:59:21.489Z,-1.19
2023-01-28T19:01:48.751Z,-1.24
2023-01-28T19:04:16.334Z,-1.31
2023-01-28T19:06:43.740Z,-1.34
2023-01-28T19:09:13.495Z,-1.41
2023-01-28T19:11:41.727Z,-1.45
2023-01-28T19:14:15.663Z,-1.48
2023-01-28T19:16:43.768Z,-1.52
2023-01-28T19:19:10.775Z,-1.54
2023-01-28T19:21:38.000Z,-1.56
2023-01-28T19:24:09.680Z,-1.57
2023-01-28T19:26:39.120Z,-1.54
2023-01-28T19:29:09.797Z,-1.53
2023-01-28T19:31:39.044Z,-1.54
2023-01-28T19:34:06.805Z,-1.57
2023-01-28T19:36:34.539Z,-1.61
2023-01-28T19:39:08.615Z,-1.64
2023-01-28T19:41:36.601Z,-1.67
2023-01-28T19:44:04.979Z,-1.69
2023-01-28T19:46:33.780Z,-1.67
2023-01-28T19:49:00.840Z,-1.66
2023-01-28T19:51:28.404Z,-1.63
2023-01-28T19:53:55.553Z,-1.61
2023-01-28T19:56:25.780Z,-1.60
2023-01-28T19:58:54.591Z,-1.59
2023-01-28T20:01:27.930Z,-1.60
2023-01-28T20:04:00.174Z,-1.62
2023-01-28T20:06:30.724Z,-1.64
2023-01-28T20:09:02.649Z,-1.64
2023-01-28T20:11:30.381Z,-1.64
2023-01-28T20:13:57.500Z,-1.64
2023-01-28T20:16:33.150Z,-1.62
2023-01-28T20:19:13.254Z,-1.61
2023-01-28T20:21:40.371Z,-1.60
2023-01-28T20:24:08.270Z,-1.59
2023-01-28T20:26:37.824Z,-1.60
2023-01-28T20:29:12.915Z,-1.57
2023-01-28T20:31:41.834Z,-1.58
2023-01-28T20:34:15.968Z,-1.56
2023-01-28T20:36:43.739Z,-1.57
2023-01-28T20:39:11.979Z,-1.58
2023-01-28T20:41:39.039Z,-1.58
2023-01-28T20:44:06.036Z,-1.61
2023-01-28T20:46:35.692Z,-1.64
2023-01-28T20:49:06.121Z,-1.67
2023-01-28T20:51:35.791Z,-1.71
2023-01-28T20:54:03.346Z,-1.76
2023-01-28T20:56:31.250Z,-1.80
2023-01-28T20:59:05.186Z,-1.87
2023-01-28T21:01:35.379Z,-1.89
2023-01-28T21:04:05.093Z,-1.91
2023-01-28T21:06:32.832Z,-1.90
2023-01-28T21:09:01.249Z,-1.91
2023-01-28T21:11:28.419Z,-1.92
2023-01-28T21:13:56.422Z,-1.89
2023-01-28T21:16:24.423Z,-1.89
2023-01-28T21:18:51.996Z,-1.89
2023-01-28T21:21:28.449Z,-1.91
2023-01-28T21:23:58.766Z,-1.93
2023-01-28T21:26:26.773Z,-1.95
2023-01-28T21:28:56.022Z,-1.97
2023-01-28T21:31:25.879Z,-1.98
2023-01-28T21:33:56.205Z,-1.99
2023-01-28T21:36:25.864Z,-1.98
2023-01-28T21:39:00.416Z,-1.99
2023-01-28T21:41:27.780Z,-2.04
2023-01-28T21:43:57.596Z,-2.07
2023-01-28T21:46:31.878Z,-2.10
2023-01-28T21:49:02.325Z,-2.11
2023-01-28T21:51:36.388Z,-2.12
2023-01-28T21:54:11.850Z,-2.12
2023-01-28T21:56:39.179Z,-2.12
2023-01-28T21:59:24.789Z,-2.11
2023-01-28T22:01:51.988Z,-2.09
2023-01-28T22:04:19.039Z,-2.07
2023-01-28T22:06:46.165Z,-2.04
2023-01-28T22:09:14.233Z,-2.02
2023-01-28T22:11:44.499Z,-2.00
2023-01-28T22:14:12.632Z,-2.01
2023-01-28T22:16:40.551Z,-2.01
2023-01-28T22:19:08.425Z,-2.00
2023-01-28T22:21:40.987Z,-2.01
2023-01-28T22:24:15.630Z,-2.03
2023-01-28T22:26:43.701Z,-2.08
2023-01-28T22:29:12.839Z,-2.09
2023-01-28T22:31:40.427Z,-2.10
2023-01-28T22:34:07.920Z,-2.11
2023-01-28T22:36:35.235Z,-2.10
2023-01-28T22:39:07.007Z,-2.09
2023-01-28T22:41:34.845Z,-2.07
2023-01-28T22:44:03.756Z,-2.04
2023-01-28T22:46:34.100Z,-1.98
2023-01-28T22:49:01.421Z,-1.94
2023-01-28T22:51:33.371Z,-1.90
2023-01-28T22:54:00.284Z,-1.85
2023-01-28T22:56:29.956Z,-1.81
2023-01-28T22:59:00.144Z,-1.77
2023-01-28T23:01:28.467Z,-1.73
2023-01-28T23:03:58.272Z,-1.70
2023-01-28T23:06:27.488Z,-1.66
2023-01-28T23:08:56.328Z,-1.63
2023-01-28T23:11:27.851Z,-1.61
2023-01-28T23:14:20.567Z,-1.61
2023-01-28T23:17:07.787Z,-1.61
2023-01-28T23:19:54.083Z,-1.62
2023-01-28T23:22:49.087Z,-1.63
2023-01-28T23:25:17.470Z,-1.65
2023-01-28T23:27:44.876Z,-1.66
2023-01-28T23:30:13.805Z,-1.69
2023-01-28T23:32:48.352Z,-1.72
2023-01-28T23:35:16.628Z,-1.76
2023-01-28T23:37:43.647Z,-1.76
2023-01-28T23:40:12.605Z,-1.76
2023-01-28T23:42:39.702Z,-1.75
2023-01-28T23:45:07.547Z,-1.75
2023-01-28T23:47:34.548Z,-1.75
2023-01-28T23:50:01.895Z,-1.75
2023-01-28T23:52:28.892Z,-1.75
2023-01-28T23:54:56.173Z,-1.74
2023-01-28T23:57:23.098Z,-1.74
2023-01-28T23:59:51.525Z,-1.73
